sensor_id;sensor_type;location;lat;lon;timestamp;P1;P2;P0
77354;PMS7003;66422;51.202;19.936;2024-01-07T00:13:27;13.00;7.00;4.00
77354;PMS7003;66422;51.202;19.936;2024-01-07T00:28:47;11.00;5.33;3.33
77354;PMS7003;66422;51.202;19.936;2024-01-07T00:44:07;7.67;6.67;6.00
77354;PMS7003;66422;51.202;19.936;2024-01-07T00:59:28;6.00;3.50;1.00
77354;PMS7003;66422;51.202;19.936;2024-01-07T01:14:49;6.00;6.00;4.00
77354;PMS7003;66422;51.202;19.936;2024-01-07T01:30:09;7.00;7.00;4.00
77354;PMS7003;66422;51.202;19.936;2024-01-07T01:45:30;12.50;6.50;4.00
77354;PMS7003;66422;51.202;19.936;2024-01-07T02:00:50;9.00;4.00;3.00
77354;PMS7003;66422;51.202;19.936;2024-01-07T02:16:10;9.00;6.50;5.00
77354;PMS7003;66422;51.202;19.936;2024-01-07T02:31:31;6.33;6.33;4.67
77354;PMS7003;66422;51.202;19.936;2024-01-07T02:46:51;15.00;9.00;6.00
77354;PMS7003;66422;51.202;19.936;2024-01-07T03:02:11;7.00;4.00;4.00
77354;PMS7003;66422;51.202;19.936;2024-01-07T03:17:30;10.50;9.00;6.50
77354;PMS7003;66422;51.202;19.936;2024-01-07T03:32:50;15.00;4.00;4.00
77354;PMS7003;66422;51.202;19.936;2024-01-07T03:48:10;7.00;6.00;4.00
77354;PMS7003;66422;51.202;19.936;2024-01-07T04:03:30;8.00;3.50;1.00
77354;PMS7003;66422;51.202;19.936;2024-01-07T04:18:49;12.33;5.33;3.00
77354;PMS7003;66422;51.202;19.936;2024-01-07T04:34:09;12.00;6.00;4.00
77354;PMS7003;66422;51.202;19.936;2024-01-07T04:49:29;3.00;3.00;2.00
77354;PMS7003;66422;51.202;19.936;2024-01-07T05:04:49;8.25;4.00;3.00
77354;PMS7003;66422;51.202;19.936;2024-01-07T05:20:08;7.00;4.00;3.00
77354;PMS7003;66422;51.202;19.936;2024-01-07T05:35:29;10.00;3.50;3.50
77354;PMS7003;66422;51.202;19.936;2024-01-07T05:50:48;1.00;1.00;0.00
77354;PMS7003;66422;51.202;19.936;2024-01-07T06:06:08;6.50;6.00;4.00
77354;PMS7003;66422;51.202;19.936;2024-01-07T06:21:28;6.50;3.00;3.00
77354;PMS7003;66422;51.202;19.936;2024-01-07T06:36:49;9.00;4.00;3.00
77354;PMS7003;66422;51.202;19.936;2024-01-07T06:52:09;9.00;4.00;3.00
77354;PMS7003;66422;51.202;19.936;2024-01-07T07:07:29;8.75;5.50;3.50
77354;PMS7003;66422;51.202;19.936;2024-01-07T07:22:49;3.50;3.00;1.00
77354;PMS7003;66422;51.202;19.936;2024-01-07T07:38:08;6.00;6.00;6.00
77354;PMS7003;66422;51.202;19.936;2024-01-07T07:53:28;9.00;6.00;4.00
77354;PMS7003;66422;51.202;19.936;2024-01-07T08:08:48;9.67;6.00;4.00
77354;PMS7003;66422;51.202;19.936;2024-01-07T08:24:07;6.50;6.50;5.00
77354;PMS7003;66422;51.202;19.936;2024-01-07T08:39:29;6.00;6.00;3.00
77354;PMS7003;66422;51.202;19.936;2024-01-07T08:54:50;12.50;7.50;5.00
77354;PMS7003;66422;51.202;19.936;2024-01-07T09:10:10;9.50;3.50;1.00
77354;PMS7003;66422;51.202;19.936;2024-01-07T09:25:30;8.67;6.67;6.00
77354;PMS7003;66422;51.202;19.936;2024-01-07T09:40:50;10.00;10.00;7.00
77354;PMS7003;66422;51.202;19.936;2024-01-07T09:56:11;19.00;10.00;7.00
77354;PMS7003;66422;51.202;19.936;2024-01-07T10:11:34;4.00;3.00;1.00
77354;PMS7003;66422;51.202;19.936;2024-01-07T10:26:55;18.00;13.00;9.00
77354;PMS7003;66422;51.202;19.936;2024-01-07T10:42:16;27.00;13.00;10.00
77354;PMS7003;66422;51.202;19.936;2024-01-07T11:13:00;31.00;19.00;15.00
77354;PMS7003;66422;51.202;19.936;2024-01-07T11:28:23;23.33;14.33;9.33
77354;PMS7003;66422;51.202;19.936;2024-01-07T11:44:11;24.00;16.50;11.00
77354;PMS7003;66422;51.202;19.936;2024-01-07T11:59:34;21.67;15.33;10.00
77354;PMS7003;66422;51.202;19.936;2024-01-07T12:14:54;22.00;15.50;12.00
77354;PMS7003;66422;51.202;19.936;2024-01-07T12:30:17;30.33;16.67;12.33
77354;PMS7003;66422;51.202;19.936;2024-01-07T12:45:37;18.00;13.00;9.00
77354;PMS7003;66422;51.202;19.936;2024-01-07T13:00:57;14.67;10.67;7.00
77354;PMS7003;66422;51.202;19.936;2024-01-07T13:16:17;19.00;15.00;12.00
77354;PMS7003;66422;51.202;19.936;2024-01-07T13:31:38;19.00;15.00;9.50
77354;PMS7003;66422;51.202;19.936;2024-01-07T13:46:58;29.00;17.00;9.50
77354;PMS7003;66422;51.202;19.936;2024-01-07T14:02:17;19.00;12.00;10.00
77354;PMS7003;66422;51.202;19.936;2024-01-07T14:17:38;20.50;14.00;9.50
77354;PMS7003;66422;51.202;19.936;2024-01-07T14:32:59;25.00;18.00;12.00
77354;PMS7003;66422;51.202;19.936;2024-01-07T14:48:18;18.50;14.00;10.00
77354;PMS7003;66422;51.202;19.936;2024-01-07T15:03:38;15.00;10.00;7.00
77354;PMS7003;66422;51.202;19.936;2024-01-07T15:18:58;19.00;12.00;9.00
77354;PMS7003;66422;51.202;19.936;2024-01-07T15:34:18;22.00;16.00;12.50
77354;PMS7003;66422;51.202;19.936;2024-01-07T15:49:38;18.50;12.00;10.00
77354;PMS7003;66422;51.202;19.936;2024-01-07T16:04:57;27.00;18.00;16.00
77354;PMS7003;66422;51.202;19.936;2024-01-07T16:20:17;33.50;17.00;11.00
77354;PMS7003;66422;51.202;19.936;2024-01-07T16:35:37;27.33;19.67;15.00
77354;PMS7003;66422;51.202;19.936;2024-01-07T16:50:59;24.50;18.50;13.00
77354;PMS7003;66422;51.202;19.936;2024-01-07T17:06:18;16.00;9.00;7.00
77354;PMS7003;66422;51.202;19.936;2024-01-07T17:21:38;30.50;22.00;16.00
77354;PMS7003;66422;51.202;19.936;2024-01-07T17:36:58;24.33;16.00;12.00
77354;PMS7003;66422;51.202;19.936;2024-01-07T17:52:18;18.00;18.00;13.00
77354;PMS7003;66422;51.202;19.936;2024-01-07T18:07:38;19.00;13.00;9.00
77354;PMS7003;66422;51.202;19.936;2024-01-07T18:22:58;39.00;21.00;13.00
77354;PMS7003;66422;51.202;19.936;2024-01-07T18:38:17;26.50;21.00;15.00
77354;PMS7003;66422;51.202;19.936;2024-01-07T18:53:37;31.00;22.00;15.00
77354;PMS7003;66422;51.202;19.936;2024-01-07T19:08:58;24.67;18.67;12.00
77354;PMS7003;66422;51.202;19.936;2024-01-07T19:24:19;29.00;21.50;13.00
77354;PMS7003;66422;51.202;19.936;2024-01-07T19:39:39;27.00;16.00;12.00
77354;PMS7003;66422;51.202;19.936;2024-01-07T19:54:59;22.50;14.00;12.00
77354;PMS7003;66422;51.202;19.936;2024-01-07T20:10:18;21.00;19.00;13.00
77354;PMS7003;66422;51.202;19.936;2024-01-07T20:25:38;34.00;19.00;13.00
77354;PMS7003;66422;51.202;19.936;2024-01-07T20:40:58;22.00;13.00;9.00
77354;PMS7003;66422;51.202;19.936;2024-01-07T20:56:18;18.00;18.00;13.00
77354;PMS7003;66422;51.202;19.936;2024-01-07T21:11:39;30.00;16.00;13.00
77354;PMS7003;66422;51.202;19.936;2024-01-07T21:26:58;19.00;12.00;7.00
77354;PMS7003;66422;51.202;19.936;2024-01-07T21:42:20;24.00;15.00;10.00
77354;PMS7003;66422;51.202;19.936;2024-01-07T21:57:39;7.00;0.00;0.00
77354;PMS7003;66422;51.202;19.936;2024-01-07T22:12:59;23.00;18.00;14.00
77354;PMS7003;66422;51.202;19.936;2024-01-07T22:28:19;38.00;24.00;13.67
77354;PMS7003;66422;51.202;19.936;2024-01-07T22:43:38;25.67;19.33;12.67
77354;PMS7003;66422;51.202;19.936;2024-01-07T22:58:58;25.00;16.00;6.00
77354;PMS7003;66422;51.202;19.936;2024-01-07T23:14:17;36.00;21.75;13.50
77354;PMS7003;66422;51.202;19.936;2024-01-07T23:29:37;28.00;16.00;12.00
77354;PMS7003;66422;51.202;19.936;2024-01-07T23:44:57;18.00;12.00;6.00
